首页
METAR-TAF:

METAR-TAF

机场 :

格域機場, 英格兰

纬度: 51-09N, 经度: 000-11W, 海拔: 62米

当前天气观测

该预报发布于43分钟前的19:20 UTC
风速6节,风向北转西北
温度 10°C
湿度 93%
气压 1001 hPa
能見度: 3000
少量云层高于1600英尺
多云层高于3200英尺, 积雨云.
阵雨

METAR: EGKK 061920Z 34006KT 8000 3000NW SHRA FEW016 BKN032CB 10/09 Q1001

时间: 21:03 (20:03 UTC)

预报

该预报发布于3小时和7分钟前的16:56 UTC
预报有效从06日的 18点(UTC)到 07日的 24点(UTC)
风速15节,风向西,有时为25节阵风
能见度10公里或以上
散云层高于2000英尺
成为
从 06日的 18点(UTC)到 06日的 21点(UTC)
风速7节,风向西转西北
短暂存在
从 06日的 18点(UTC)到 06日的 21点(UTC)
能見度: 7000
阵雨
几率 30% :
短暂存在
从 06日的 18点(UTC)到 06日的 19点(UTC)
能見度: 4000
大阵雨
几率 30% :
短暂存在
从 07日的 13点(UTC)到 07日的 18点(UTC)
能見度: 8000
小阵雨
几率 30% :
短暂存在
从 07日的 22点(UTC)到 07日的 24点(UTC)
多云层高于1200英尺

TAF: EGKK 061656Z 0618/0724 26015G25KT 9999 SCT020 BECMG 0618/0621 30007KT TEMPO 0618/0621 7000 SHRA PROB30 TEMPO 0618/0619 4000 +SHRA PROB30 TEMPO 0713/0718 8000 -SHRA PROB30 TEMPO 0722/0724 BKN012

超过4000个机场的气象观测和天气预报(METAR&TAF报告)。

可查询的气象台以黄色和红色小点在地图上表示。

将鼠标移到小点上方,可查看气象台名称。

然后点击查看天气观测和预报。

如需切换地图:点击带黑十字的绿色按钮放大地图;点击带横线的绿色按钮缩小地图;或者点击绿色箭头查看邻近地区的地图。


METAR-TAF: